createdAt,value
2018-12-04T00:00:37.817Z,59.00
2018-12-04T00:03:07.067Z,58.47
2018-12-04T00:05:36.093Z,61.13
2018-12-04T00:08:05.114Z,58.67
2018-12-04T00:10:34.021Z,60.20
2018-12-04T00:13:02.921Z,59.43
2018-12-04T00:15:31.828Z,59.77
2018-12-04T00:18:00.718Z,59.23
2018-12-04T00:20:29.618Z,53.13
2018-12-04T00:22:58.521Z,55.63
2018-12-04T00:25:27.437Z,60.70
2018-12-04T00:27:56.325Z,56.97
2018-12-04T00:30:25.246Z,57.17
2018-12-04T00:32:54.144Z,57.73
2018-12-04T00:35:23.046Z,58.27
2018-12-04T00:37:51.942Z,62.37
2018-12-04T00:40:20.836Z,56.47
2018-12-04T00:42:49.866Z,59.03
2018-12-04T00:45:18.778Z,51.70
2018-12-04T00:47:47.676Z,55.10
2018-12-04T00:50:16.568Z,55.40
2018-12-04T00:52:45.463Z,59.10
2018-12-04T00:55:14.365Z,55.33
2018-12-04T00:57:43.820Z,57.67
2018-12-04T01:00:13.094Z,53.67
2018-12-04T01:02:42.025Z,52.27
2018-12-04T01:05:10.947Z,53.40
2018-12-04T01:07:39.848Z,57.87
2018-12-04T01:10:08.751Z,53.80
2018-12-04T01:12:37.645Z,49.07
2018-12-04T01:15:07.533Z,51.63
2018-12-04T01:17:36.438Z,52.47
2018-12-04T01:20:06.362Z,50.87
2018-12-04T01:22:35.286Z,49.80
2018-12-04T01:25:04.198Z,48.00
2018-12-04T01:27:33.097Z,50.63
2018-12-04T01:30:02.027Z,50.10
2018-12-04T01:32:30.974Z,51.70
2018-12-04T01:34:59.883Z,48.00
2018-12-04T01:37:28.792Z,42.30
2018-12-04T01:39:57.703Z,47.47
2018-12-04T01:42:26.623Z,45.40
2018-12-04T01:44:55.525Z,49.17
2018-12-04T01:47:24.435Z,47.57
2018-12-04T01:49:53.337Z,51.90
2018-12-04T01:52:22.237Z,46.87
2018-12-04T01:54:51.137Z,52.37
2018-12-04T01:57:20.025Z,48.67
2018-12-04T01:59:48.928Z,48.67
2018-12-04T02:02:17.841Z,42.40
2018-12-04T02:04:46.757Z,45.73
2018-12-04T02:07:15.652Z,47.30
2018-12-04T02:09:44.570Z,43.07
2018-12-04T02:12:13.469Z,39.00
2018-12-04T02:14:42.382Z,37.27
2018-12-04T02:17:11.289Z,35.10
2018-12-04T02:19:40.206Z,37.93
2018-12-04T02:22:09.102Z,37.23
2018-12-04T02:24:38.020Z,39.23
2018-12-04T02:27:06.933Z,41.17
2018-12-04T02:29:35.838Z,39.53
2018-12-04T02:32:04.746Z,41.97
2018-12-04T02:34:33.659Z,43.93
2018-12-04T02:37:02.558Z,41.23
2018-12-04T02:39:31.475Z,42.53
2018-12-04T02:42:00.366Z,45.20
2018-12-04T02:44:29.269Z,46.87
2018-12-04T02:46:58.162Z,48.97
2018-12-04T02:49:27.060Z,52.57
2018-12-04T02:51:55.960Z,49.50
2018-12-04T02:54:24.880Z,49.03
2018-12-04T02:56:53.782Z,43.13
2018-12-04T02:59:22.693Z,48.43
2018-12-04T03:01:51.586Z,44.60
2018-12-04T03:04:20.493Z,41.67
2018-12-04T03:06:49.384Z,39.00
2018-12-04T03:09:18.290Z,40.20
2018-12-04T03:11:47.207Z,38.07
2018-12-04T03:14:16.104Z,44.47
2018-12-04T03:16:45.010Z,42.43
2018-12-04T03:19:13.911Z,42.80
2018-12-04T03:21:42.813Z,40.13
2018-12-04T03:24:11.705Z,45.70
2018-12-04T03:26:40.618Z,47.43
2018-12-04T03:29:09.534Z,45.00
2018-12-04T03:31:38.442Z,40.60
2018-12-04T03:34:07.358Z,42.17
2018-12-04T03:36:36.277Z,42.63
2018-12-04T03:39:07.761Z,41.87
2018-12-04T03:41:36.870Z,41.30
2018-12-04T03:44:05.766Z,44.03
2018-12-04T03:46:34.682Z,39.63
2018-12-04T03:49:03.593Z,39.27
2018-12-04T03:51:32.505Z,40.67
2018-12-04T03:54:01.404Z,41.90
2018-12-04T03:56:30.318Z,44.60
2018-12-04T03:58:59.234Z,42.10
2018-12-04T04:01:28.143Z,40.50
2018-12-04T04:03:57.249Z,44.67
2018-12-04T04:06:26.149Z,44.80
2018-12-04T04:08:55.104Z,41.87
2018-12-04T04:11:23.999Z,41.27
2018-12-04T04:13:53.065Z,42.17
2018-12-04T04:16:21.986Z,41.53
2018-12-04T04:18:50.891Z,42.23
2018-12-04T04:21:19.806Z,37.67
2018-12-04T04:23:48.731Z,39.60
2018-12-04T04:26:17.665Z,36.90
2018-12-04T04:28:46.573Z,37.07
2018-12-04T04:31:15.488Z,36.70
2018-12-04T04:33:44.407Z,39.30
2018-12-04T04:36:13.329Z,45.40
2018-12-04T04:38:42.337Z,48.20
2018-12-04T04:41:11.356Z,48.50
2018-12-04T04:43:40.277Z,40.80
2018-12-04T04:46:09.199Z,41.47
2018-12-04T04:48:38.097Z,43.60
2018-12-04T04:51:07.004Z,43.80
2018-12-04T04:53:35.926Z,44.70
2018-12-04T04:56:04.861Z,48.17
2018-12-04T04:58:33.759Z,44.53
2018-12-04T05:01:02.672Z,42.13
2018-12-04T05:03:31.589Z,38.77
2018-12-04T05:06:00.534Z,42.53
2018-12-04T05:08:29.437Z,40.80
2018-12-04T05:10:58.486Z,46.47
2018-12-04T05:13:27.397Z,43.63
2018-12-04T05:15:56.384Z,43.57
2018-12-04T05:18:25.372Z,39.87
2018-12-04T05:20:54.354Z,44.30
2018-12-04T05:23:23.261Z,48.20
2018-12-04T05:25:52.178Z,47.70
2018-12-04T05:28:21.129Z,43.10
2018-12-04T05:30:50.037Z,43.67
2018-12-04T05:33:18.924Z,40.93
2018-12-04T05:35:47.821Z,40.53
2018-12-04T05:38:16.709Z,40.80
2018-12-04T05:40:45.624Z,43.17
2018-12-04T05:43:14.531Z,44.67
2018-12-04T05:45:43.438Z,42.20
2018-12-04T05:48:12.363Z,40.57
2018-12-04T05:50:41.280Z,38.30
2018-12-04T05:53:21.183Z,41.30
2018-12-04T05:55:50.085Z,41.60
2018-12-04T05:58:18.997Z,41.40
2018-12-04T06:00:48.073Z,43.37
2018-12-04T06:03:16.985Z,48.57
2018-12-04T06:05:45.898Z,54.60
2018-12-04T06:08:14.802Z,55.43
2018-12-04T06:10:43.704Z,53.67
2018-12-04T06:13:12.605Z,49.83
2018-12-04T06:15:41.512Z,52.60
2018-12-04T06:18:11.661Z,61.73
2018-12-04T06:20:40.752Z,57.60
2018-12-04T06:23:09.655Z,58.40
2018-12-04T06:25:38.565Z,56.43
2018-12-04T06:28:07.461Z,54.40
2018-12-04T06:30:36.368Z,62.83
2018-12-04T06:33:05.264Z,51.20
2018-12-04T06:35:34.272Z,52.73
2018-12-04T06:38:03.174Z,46.30
2018-12-04T06:40:32.171Z,53.43
2018-12-04T06:43:01.080Z,38.70
2018-12-04T06:45:29.986Z,38.37
2018-12-04T06:47:58.873Z,33.37
2018-12-04T06:50:27.788Z,34.37
2018-12-04T06:52:56.673Z,28.00
2018-12-04T06:55:25.594Z,26.40
2018-12-04T06:57:58.965Z,25.00
2018-12-04T07:00:27.925Z,27.77
2018-12-04T07:02:56.812Z,28.03
2018-12-04T07:05:25.763Z,28.50
2018-12-04T07:07:54.730Z,27.30
2018-12-04T07:10:23.626Z,24.20
2018-12-04T07:12:52.513Z,24.13
2018-12-04T07:15:21.405Z,23.90
2018-12-04T07:17:50.298Z,21.23
2018-12-04T07:20:19.186Z,23.77
2018-12-04T07:22:48.096Z,23.93
2018-12-04T07:25:17.085Z,25.40
2018-12-04T07:27:46.024Z,27.17
2018-12-04T07:30:15.000Z,29.17
2018-12-04T07:32:43.909Z,26.80
2018-12-04T07:35:12.812Z,28.00
2018-12-04T07:37:41.704Z,29.10
2018-12-04T07:40:10.602Z,25.10
2018-12-04T07:42:39.503Z,27.83
2018-12-04T07:45:08.489Z,26.47
2018-12-04T07:47:37.393Z,30.40
2018-12-04T07:50:06.365Z,30.63
2018-12-04T07:52:35.261Z,29.67
2018-12-04T07:55:04.200Z,31.10
2018-12-04T07:57:33.109Z,26.27
2018-12-04T08:00:02.001Z,25.13
2018-12-04T08:02:30.889Z,22.97
2018-12-04T08:04:59.793Z,28.10
2018-12-04T08:07:28.681Z,33.50
2018-12-04T08:09:57.593Z,32.67
2018-12-04T08:12:26.502Z,29.57
2018-12-04T08:14:55.411Z,36.10
2018-12-04T08:17:24.316Z,43.67
2018-12-04T08:19:53.213Z,42.43
2018-12-04T08:22:22.115Z,50.40
2018-12-04T08:24:51.030Z,47.67
2018-12-04T08:27:26.310Z,46.57
2018-12-04T08:29:55.215Z,46.43
2018-12-04T08:32:24.133Z,46.33
2018-12-04T08:34:53.077Z,44.93
2018-12-04T08:37:21.977Z,42.33
2018-12-04T08:39:50.911Z,43.17
2018-12-04T08:42:19.856Z,43.67
2018-12-04T08:44:48.741Z,44.97
2018-12-04T08:47:17.640Z,44.30
2018-12-04T08:49:46.620Z,43.77
2018-12-04T08:52:15.565Z,42.97
2018-12-04T08:54:44.480Z,50.53
2018-12-04T08:57:13.393Z,52.17
2018-12-04T08:59:42.300Z,50.27
2018-12-04T09:02:11.317Z,63.60
2018-12-04T09:04:40.219Z,58.20
2018-12-04T09:07:09.163Z,67.27
2018-12-04T09:09:38.064Z,74.17
2018-12-04T09:12:06.971Z,68.20
2018-12-04T09:14:38.298Z,72.30
2018-12-04T09:17:06.816Z,70.63
2018-12-04T09:19:35.786Z,70.07
2018-12-04T09:22:04.821Z,73.30
2018-12-04T09:24:33.798Z,70.07
2018-12-04T09:27:05.444Z,73.43
2018-12-04T09:29:33.663Z,73.10
2018-12-04T09:32:02.576Z,74.27
2018-12-04T09:34:31.466Z,72.77
2018-12-04T09:37:00.373Z,69.60
2018-12-04T09:39:29.275Z,72.07
2018-12-04T09:41:58.213Z,71.53
2018-12-04T09:44:27.133Z,73.33
2018-12-04T09:46:56.044Z,76.20
2018-12-04T09:49:24.939Z,77.17
2018-12-04T09:51:53.857Z,62.60
2018-12-04T09:54:22.766Z,54.20
2018-12-04T09:56:51.805Z,54.90
2018-12-04T09:59:20.717Z,55.47
2018-12-04T10:01:49.611Z,53.97
2018-12-04T10:04:18.501Z,56.77
2018-12-04T10:06:47.391Z,53.07
2018-12-04T10:09:16.293Z,54.20
2018-12-04T10:11:45.193Z,53.10
2018-12-04T10:14:14.094Z,50.07
2018-12-04T10:16:42.985Z,51.33
2018-12-04T10:19:11.878Z,53.50
2018-12-04T10:21:40.873Z,47.67
2018-12-04T10:24:09.857Z,48.63
2018-12-04T10:26:38.917Z,48.93
2018-12-04T10:29:07.816Z,55.37
2018-12-04T10:31:36.714Z,60.60
2018-12-04T10:34:05.609Z,56.30
2018-12-04T10:36:34.501Z,52.37
2018-12-04T10:39:04.314Z,54.43
2018-12-04T10:41:33.213Z,52.53
2018-12-04T10:44:02.109Z,47.00
2018-12-04T10:46:30.997Z,48.10
2018-12-04T10:48:59.885Z,46.67
2018-12-04T10:51:28.769Z,49.37
2018-12-04T10:53:57.656Z,44.83
2018-12-04T10:56:26.554Z,44.77
2018-12-04T10:58:55.436Z,44.60
2018-12-04T11:01:28.383Z,46.10
2018-12-04T11:03:57.282Z,48.50
2018-12-04T11:06:26.177Z,49.10
2018-12-04T11:08:55.076Z,49.37
2018-12-04T11:11:23.966Z,48.50
2018-12-04T11:13:52.968Z,50.30
2018-12-04T11:16:21.953Z,51.77
2018-12-04T11:18:50.845Z,54.43
2018-12-04T11:21:19.780Z,51.07
2018-12-04T11:23:48.681Z,49.97
2018-12-04T11:26:17.565Z,49.63
2018-12-04T11:28:46.486Z,46.73
2018-12-04T11:31:15.391Z,50.60
2018-12-04T11:33:45.611Z,53.20
2018-12-04T11:36:14.500Z,57.30
2018-12-04T11:38:43.379Z,61.70
2018-12-04T11:41:12.269Z,63.97
2018-12-04T11:43:41.161Z,72.47
2018-12-04T11:46:10.061Z,67.57
2018-12-04T11:48:38.946Z,77.60
2018-12-04T11:51:07.849Z,69.60
2018-12-04T11:53:36.742Z,90.77
2018-12-04T11:56:05.651Z,74.30
2018-12-04T11:58:34.710Z,68.17
2018-12-04T12:01:03.729Z,74.40
2018-12-04T12:03:32.611Z,77.80
2018-12-04T12:06:01.535Z,75.57
2018-12-04T12:08:30.485Z,71.60
2018-12-04T12:10:59.393Z,74.90
2018-12-04T12:13:28.364Z,77.93
2018-12-04T12:15:57.253Z,76.47
2018-12-04T12:18:26.233Z,67.27
2018-12-04T12:20:55.239Z,66.63
2018-12-04T12:23:24.133Z,64.20
2018-12-04T12:25:53.080Z,59.30
2018-12-04T12:28:22.021Z,62.07
2018-12-04T12:30:51.913Z,63.80
2018-12-04T12:33:20.833Z,67.40
2018-12-04T12:35:49.774Z,66.40
2018-12-04T12:38:18.700Z,68.67
2018-12-04T12:40:47.628Z,70.40
2018-12-04T12:43:16.559Z,70.33
2018-12-04T12:45:45.486Z,72.80
2018-12-04T12:48:14.426Z,74.87
2018-12-04T12:50:43.394Z,73.70
2018-12-04T12:53:12.327Z,76.77
2018-12-04T12:55:41.273Z,74.47
2018-12-04T12:58:10.202Z,83.67
2018-12-04T13:00:39.141Z,88.83
2018-12-04T13:03:08.035Z,82.03
2018-12-04T13:05:37.378Z,77.83
2018-12-04T13:08:06.386Z,72.90
2018-12-04T13:10:35.312Z,70.93
2018-12-04T13:13:04.237Z,68.50
2018-12-04T13:15:33.166Z,64.90
2018-12-04T13:18:02.096Z,61.20
2018-12-04T13:20:31.025Z,64.13
2018-12-04T13:22:59.960Z,63.17
2018-12-04T13:25:28.886Z,67.43
2018-12-04T13:27:57.789Z,63.37
2018-12-04T13:30:26.705Z,68.27
2018-12-04T13:32:55.765Z,68.13
2018-12-04T13:35:24.790Z,70.07
2018-12-04T13:37:53.684Z,75.63
2018-12-04T13:40:22.651Z,77.60
2018-12-04T13:42:51.560Z,89.87
2018-12-04T13:45:20.473Z,82.60
2018-12-04T13:47:49.374Z,79.07
2018-12-04T13:50:18.294Z,81.50
2018-12-04T13:52:47.214Z,79.33
2018-12-04T13:55:16.121Z,79.40
2018-12-04T13:57:50.593Z,72.10
2018-12-04T14:00:15.989Z,70.60
2018-12-04T14:02:44.928Z,65.87
2018-12-04T14:05:13.875Z,69.97
2018-12-04T14:07:42.815Z,66.10
2018-12-04T14:10:11.745Z,65.23
2018-12-04T14:12:40.743Z,73.00
2018-12-04T14:15:09.770Z,77.10
2018-12-04T14:17:38.690Z,75.00
2018-12-04T14:20:09.164Z,63.33
2018-12-04T14:22:38.122Z,67.63
2018-12-04T14:25:07.064Z,72.03
2018-12-04T14:27:35.974Z,62.20
2018-12-04T14:30:06.593Z,54.60
2018-12-04T14:32:35.518Z,59.67
2018-12-04T14:35:04.452Z,57.10
2018-12-04T14:37:33.536Z,64.77
2018-12-04T14:40:02.543Z,65.00
2018-12-04T14:42:31.475Z,61.90
2018-12-04T14:45:00.388Z,95.20
2018-12-04T14:47:29.347Z,77.37
2018-12-04T14:49:58.246Z,77.87
2018-12-04T14:52:27.195Z,74.07
2018-12-04T14:54:56.103Z,77.93
2018-12-04T14:57:25.101Z,76.07
2018-12-04T14:59:54.086Z,80.83
2018-12-04T15:02:23.102Z,77.90
2018-12-04T15:04:52.021Z,80.07
2018-12-04T15:07:21.047Z,77.50
2018-12-04T15:09:50.025Z,84.47
2018-12-04T15:12:18.983Z,81.73
2018-12-04T15:14:47.895Z,79.93
2018-12-04T15:17:16.812Z,90.10
2018-12-04T15:19:45.734Z,106.20
2018-12-04T15:22:14.676Z,114.27
2018-12-04T15:24:43.640Z,104.87
2018-12-04T15:27:12.553Z,108.37
2018-12-04T15:29:41.551Z,103.07
2018-12-04T15:32:10.472Z,91.67
2018-12-04T15:34:39.451Z,95.50
2018-12-04T15:37:08.504Z,83.83
2018-12-04T15:39:37.494Z,68.47
2018-12-04T15:42:06.470Z,81.67
2018-12-04T15:44:35.469Z,74.17
2018-12-04T15:47:04.539Z,65.93
2018-12-04T15:49:33.544Z,63.83
2018-12-04T15:52:02.618Z,63.90
2018-12-04T15:54:31.585Z,65.90
2018-12-04T15:57:00.499Z,68.47
2018-12-04T15:59:29.399Z,61.03
2018-12-04T16:01:58.313Z,68.43
2018-12-04T16:04:27.294Z,54.83
2018-12-04T16:06:56.188Z,55.53
2018-12-04T16:09:25.097Z,59.80
2018-12-04T16:11:54.074Z,53.70
2018-12-04T16:14:22.974Z,60.63
2018-12-04T16:16:52.039Z,59.17
2018-12-04T16:19:20.929Z,57.20
2018-12-04T16:21:49.817Z,60.40
2018-12-04T16:24:18.827Z,65.67
2018-12-04T16:26:47.728Z,56.40
2018-12-04T16:29:16.652Z,57.67
2018-12-04T16:31:45.600Z,52.90
2018-12-04T16:34:14.496Z,52.30
2018-12-04T16:36:43.384Z,67.27
2018-12-04T16:39:12.276Z,82.63
2018-12-04T16:41:41.200Z,72.70
2018-12-04T16:44:10.133Z,63.80
2018-12-04T16:46:39.077Z,63.50
2018-12-04T16:49:07.998Z,60.73
2018-12-04T16:51:36.921Z,61.43
2018-12-04T16:54:05.858Z,71.17
2018-12-04T16:56:34.764Z,66.00
2018-12-04T16:59:03.655Z,79.30
2018-12-04T17:01:32.575Z,88.83
2018-12-04T17:04:01.498Z,97.07
2018-12-04T17:06:30.402Z,107.47
2018-12-04T17:08:59.320Z,107.73
2018-12-04T17:11:28.309Z,103.87
2018-12-04T17:13:57.244Z,103.07
2018-12-04T17:16:26.194Z,100.63
2018-12-04T17:18:55.130Z,95.80
2018-12-04T17:21:24.046Z,95.33
2018-12-04T17:23:52.938Z,97.43
2018-12-04T17:26:21.861Z,97.83
2018-12-04T17:28:50.778Z,103.43
2018-12-04T17:31:19.669Z,90.77
2018-12-04T17:33:48.633Z,90.57
2018-12-04T17:36:17.517Z,87.67
2018-12-04T17:38:46.421Z,92.93
2018-12-04T17:41:15.362Z,96.57
2018-12-04T17:43:44.271Z,89.70
2018-12-04T17:46:13.168Z,78.77
2018-12-04T17:48:42.085Z,76.10
2018-12-04T17:51:11.205Z,75.80
2018-12-04T17:53:40.104Z,81.87
2018-12-04T17:56:08.997Z,90.97
2018-12-04T17:58:38.009Z,84.83
2018-12-04T18:01:06.932Z,76.30
2018-12-04T18:03:35.869Z,74.63
2018-12-04T18:06:04.769Z,78.63
2018-12-04T18:08:33.669Z,75.80
2018-12-04T18:11:02.566Z,76.67
2018-12-04T18:13:31.485Z,70.97
2018-12-04T18:16:00.449Z,73.77
2018-12-04T18:18:29.349Z,81.80
2018-12-04T18:20:58.249Z,86.47
2018-12-04T18:23:27.196Z,90.27
2018-12-04T18:25:56.114Z,81.00
2018-12-04T18:28:25.150Z,80.80
2018-12-04T18:30:54.074Z,79.40
2018-12-04T18:33:23.007Z,82.47
2018-12-04T18:35:51.933Z,98.37
2018-12-04T18:38:20.874Z,118.53
2018-12-04T18:40:49.957Z,165.03
2018-12-04T18:43:18.959Z,164.40
2018-12-04T18:45:47.885Z,146.53
2018-12-04T18:48:16.809Z,136.23
2018-12-04T18:50:45.740Z,147.33
2018-12-04T18:53:14.670Z,128.10
2018-12-04T18:55:43.668Z,111.47
2018-12-04T18:58:12.614Z,110.60
2018-12-04T19:00:41.516Z,110.40
2018-12-04T19:03:10.509Z,91.37
2018-12-04T19:05:39.401Z,76.27
2018-12-04T19:08:09.226Z,73.60
2018-12-04T19:10:38.149Z,64.73
2018-12-04T19:13:07.058Z,51.07
2018-12-04T19:15:35.977Z,51.83
2018-12-04T19:18:04.905Z,64.87
2018-12-04T19:20:33.831Z,48.77
2018-12-04T19:23:02.800Z,44.57
2018-12-04T19:25:31.760Z,50.30
2018-12-04T19:28:01.353Z,48.20
2018-12-04T19:30:30.277Z,44.80
2018-12-04T19:32:59.225Z,43.77
2018-12-04T19:35:28.154Z,40.87
2018-12-04T19:37:57.057Z,43.10
2018-12-04T19:40:25.976Z,52.73
2018-12-04T19:42:54.904Z,44.33
2018-12-04T19:45:23.809Z,52.37
2018-12-04T19:47:52.767Z,51.90
2018-12-04T19:50:21.690Z,51.20
2018-12-04T19:52:50.599Z,48.67
2018-12-04T19:55:19.605Z,48.20
2018-12-04T19:57:48.506Z,52.70
2018-12-04T20:00:17.552Z,58.60
2018-12-04T20:02:46.479Z,61.33
2018-12-04T20:05:15.506Z,63.37
2018-12-04T20:07:44.481Z,68.40
2018-12-04T20:10:13.404Z,68.73
2018-12-04T20:12:42.329Z,76.07
2018-12-04T20:15:11.254Z,71.10
2018-12-04T20:17:40.166Z,64.30
2018-12-04T20:20:09.089Z,70.17
2018-12-04T20:22:37.997Z,73.63
2018-12-04T20:25:07.987Z,73.70
2018-12-04T20:27:36.906Z,91.63
2018-12-04T20:30:07.006Z,82.00
2018-12-04T20:32:35.914Z,88.57
2018-12-04T20:35:05.126Z,119.47
2018-12-04T20:37:34.033Z,131.17
2018-12-04T20:40:02.949Z,141.77
2018-12-04T20:42:31.867Z,137.63
2018-12-04T20:45:00.765Z,136.23
2018-12-04T20:47:29.693Z,94.07
2018-12-04T20:49:58.623Z,68.80
2018-12-04T20:52:27.612Z,75.57
2018-12-04T20:54:56.527Z,55.17
2018-12-04T20:57:25.504Z,46.40
2018-12-04T20:59:54.409Z,46.23
2018-12-04T21:02:23.462Z,44.67
2018-12-04T21:04:52.372Z,45.40
2018-12-04T21:07:21.265Z,49.30
2018-12-04T21:09:50.186Z,39.87
2018-12-04T21:12:19.104Z,40.30
2018-12-04T21:14:48.013Z,36.33
2018-12-04T21:17:16.936Z,52.10
2018-12-04T21:19:45.910Z,50.63
2018-12-04T21:22:14.829Z,57.57
2018-12-04T21:24:43.729Z,56.00
2018-12-04T21:27:17.734Z,63.57
2018-12-04T21:29:51.616Z,60.30
2018-12-04T21:32:25.536Z,84.03
2018-12-04T21:34:59.502Z,115.93
2018-12-04T21:38:37.013Z,129.97
2018-12-04T21:41:14.905Z,88.50
2018-12-04T21:43:48.916Z,48.23
2018-12-04T21:46:22.813Z,41.03
2018-12-04T21:48:52.103Z,37.37
2018-12-04T21:51:21.022Z,32.80
2018-12-04T21:53:50.021Z,34.30
2018-12-04T21:56:18.946Z,40.27
2018-12-04T21:58:47.842Z,62.57
2018-12-04T22:01:16.742Z,67.10
2018-12-04T22:03:45.650Z,60.33
2018-12-04T22:06:14.557Z,55.77
2018-12-04T22:08:43.461Z,47.83
2018-12-04T22:11:12.485Z,45.53
2018-12-04T22:13:41.379Z,45.27
2018-12-04T22:16:10.293Z,55.43
2018-12-04T22:18:39.185Z,56.57
2018-12-04T22:21:08.102Z,60.00
2018-12-04T22:23:36.997Z,56.57
2018-12-04T22:26:06.033Z,61.43
2018-12-04T22:28:34.929Z,52.67
2018-12-04T22:31:03.859Z,56.43
2018-12-04T22:33:32.786Z,53.70
2018-12-04T22:36:01.692Z,45.67
2018-12-04T22:38:30.593Z,42.60
2018-12-04T22:40:59.494Z,48.63
2018-12-04T22:43:28.389Z,42.90
2018-12-04T22:45:57.289Z,35.47
2018-12-04T22:48:26.195Z,33.80
2018-12-04T22:50:55.119Z,41.60
2018-12-04T22:53:24.024Z,42.47
2018-12-04T22:55:52.937Z,40.13
2018-12-04T22:58:21.926Z,37.37
2018-12-04T23:00:50.874Z,37.00
2018-12-04T23:03:19.781Z,32.47
2018-12-04T23:05:48.696Z,31.77
2018-12-04T23:08:17.613Z,31.63
2018-12-04T23:10:46.517Z,28.37
2018-12-04T23:13:15.526Z,28.80
2018-12-04T23:15:44.441Z,27.17
2018-12-04T23:18:13.320Z,25.53
2018-12-04T23:20:42.231Z,26.10
2018-12-04T23:23:11.143Z,28.67
2018-12-04T23:25:40.095Z,27.93
2018-12-04T23:28:08.996Z,28.27
2018-12-04T23:30:37.898Z,29.37
2018-12-04T23:33:06.802Z,31.17
2018-12-04T23:35:35.686Z,29.80
2018-12-04T23:38:04.590Z,32.60
2018-12-04T23:40:33.491Z,32.60
2018-12-04T23:43:02.395Z,28.93
2018-12-04T23:45:31.286Z,30.50
2018-12-04T23:48:00.197Z,31.20
2018-12-04T23:50:29.100Z,30.67
2018-12-04T23:52:58.010Z,30.33
2018-12-04T23:55:26.909Z,26.97
2018-12-04T23:57:55.853Z,28.70
